createdAt,value
2022-08-09T00:00:21.326Z,20.10
2022-08-09T00:02:51.464Z,19.00
2022-08-09T00:06:18.917Z,19.20
2022-08-09T00:08:11.052Z,18.90
2022-08-09T00:10:39.687Z,19.20
2022-08-09T00:13:16.899Z,18.80
2022-08-09T00:15:58.721Z,18.80
2022-08-09T00:18:26.651Z,18.70
2022-08-09T00:20:56.060Z,18.60
2022-08-09T00:23:57.792Z,18.60
2022-08-09T00:26:11.053Z,19.00
2022-08-09T00:28:39.638Z,18.50
2022-08-09T00:31:30.432Z,18.40
2022-08-09T00:33:55.726Z,18.40
2022-08-09T00:36:29.859Z,18.40
2022-08-09T00:38:58.575Z,18.40
2022-08-09T00:44:16.063Z,18.40
2022-08-09T00:44:24.890Z,18.40
2022-08-09T00:46:57.647Z,18.40
2022-08-09T00:49:36.557Z,18.30
2022-08-09T00:52:06.121Z,18.60
2022-08-09T00:54:46.058Z,18.30
2022-08-09T00:57:13.715Z,18.30
2022-08-09T00:59:47.098Z,18.30
2022-08-09T01:02:22.660Z,18.30
2022-08-09T01:05:14.991Z,18.60
2022-08-09T01:08:09.295Z,18.20
2022-08-09T01:10:57.665Z,18.20
2022-08-09T01:13:41.938Z,18.10
2022-08-09T01:16:24.925Z,18.10
2022-08-09T01:19:01.729Z,18.10
2022-08-09T01:21:51.310Z,18.10
2022-08-09T01:24:52.171Z,18.10
2022-08-09T01:27:23.964Z,18.00
2022-08-09T01:30:01.226Z,17.90
2022-08-09T01:32:38.615Z,17.90
2022-08-09T01:35:29.052Z,17.80
2022-08-09T01:38:15.146Z,17.80
2022-08-09T01:40:52.997Z,17.70
2022-08-09T01:43:41.863Z,17.60
2022-08-09T01:46:38.752Z,17.60
2022-08-09T01:49:12.549Z,17.50
2022-08-09T01:51:52.941Z,17.50
2022-08-09T01:54:32.771Z,17.50
2022-08-09T01:57:09.346Z,17.50
2022-08-09T01:59:41.075Z,17.50
2022-08-09T02:02:22.736Z,17.50
2022-08-09T02:04:50.993Z,17.50
2022-08-09T02:08:35.282Z,17.40
2022-08-09T02:10:20.377Z,17.50
2022-08-09T02:13:01.337Z,17.50
2022-08-09T02:15:36.178Z,17.80
2022-08-09T02:18:21.930Z,17.40
2022-08-09T02:20:56.649Z,17.30
2022-08-09T02:23:42.985Z,18.60
2022-08-09T02:26:26.860Z,17.30
2022-08-09T02:29:00.702Z,17.30
2022-08-09T02:31:36.439Z,18.00
2022-08-09T02:34:38.639Z,17.30
2022-08-09T02:37:04.235Z,17.50
2022-08-09T02:39:45.333Z,17.30
2022-08-09T02:42:24.945Z,17.20
2022-08-09T02:45:01.102Z,17.70
2022-08-09T02:47:33.890Z,17.20
2022-08-09T02:50:27.668Z,17.20
2022-08-09T02:53:00.350Z,17.20
2022-08-09T02:55:46.116Z,17.20
2022-08-09T02:58:37.218Z,17.20
2022-08-09T03:01:11.167Z,17.10
2022-08-09T03:04:17.353Z,17.10
2022-08-09T03:06:31.607Z,17.10
2022-08-09T03:09:01.476Z,17.10
2022-08-09T03:12:09.836Z,17.10
2022-08-09T03:14:18.410Z,17.10
2022-08-09T03:16:48.183Z,17.10
2022-08-09T03:19:58.204Z,17.10
2022-08-09T03:22:12.529Z,17.10
2022-08-09T03:25:06.362Z,17.10
2022-08-09T03:27:48.250Z,17.10
2022-08-09T03:30:28.092Z,17.00
2022-08-09T03:33:05.585Z,16.90
2022-08-09T03:35:44.424Z,16.90
2022-08-09T03:38:30.289Z,16.90
2022-08-09T03:40:58.254Z,16.80
2022-08-09T03:43:31.591Z,16.80
2022-08-09T03:46:04.969Z,17.80
2022-08-09T03:48:53.949Z,16.80
2022-08-09T03:51:44.470Z,16.80
2022-08-09T03:54:14.773Z,16.70
2022-08-09T03:56:44.752Z,16.70
2022-08-09T03:59:20.790Z,16.70
2022-08-09T04:01:56.692Z,16.70
2022-08-09T04:04:36.053Z,16.70
2022-08-09T04:07:04.863Z,17.40
2022-08-09T04:09:48.420Z,16.60
2022-08-09T04:12:47.406Z,16.60
2022-08-09T04:15:38.768Z,16.60
2022-08-09T04:18:07.285Z,18.30
2022-08-09T04:20:34.482Z,16.70
2022-08-09T04:23:01.947Z,16.70
2022-08-09T04:25:29.501Z,16.80
2022-08-09T04:27:59.951Z,16.80
2022-08-09T04:30:31.619Z,16.80
2022-08-09T04:33:01.146Z,16.70
2022-08-09T04:35:29.372Z,16.70
2022-08-09T04:38:00.162Z,16.70
2022-08-09T04:40:48.226Z,16.80
2022-08-09T04:43:23.358Z,16.80
2022-08-09T04:45:54.417Z,17.10
2022-08-09T04:48:23.847Z,17.20
2022-08-09T04:51:00.760Z,17.50
2022-08-09T04:53:28.729Z,16.90
2022-08-09T04:55:59.795Z,17.00
2022-08-09T04:58:32.790Z,17.00
2022-08-09T05:01:02.072Z,17.00
2022-08-09T05:03:40.798Z,17.10
2022-08-09T05:06:22.108Z,17.20
2022-08-09T05:09:00.604Z,19.20
2022-08-09T05:11:32.393Z,17.20
2022-08-09T05:14:06.692Z,17.20
2022-08-09T05:16:58.506Z,17.30
2022-08-09T05:19:25.607Z,17.30
2022-08-09T05:21:55.569Z,17.30
2022-08-09T05:24:24.703Z,17.40
2022-08-09T05:26:53.089Z,17.60
2022-08-09T05:29:24.235Z,17.40
2022-08-09T05:32:00.212Z,17.50
2022-08-09T05:34:30.615Z,19.00
2022-08-09T05:37:07.064Z,17.50
2022-08-09T05:39:43.886Z,17.50
2022-08-09T05:42:17.211Z,17.60
2022-08-09T05:44:50.877Z,17.60
2022-08-09T05:47:23.724Z,17.70
2022-08-09T05:50:30.150Z,17.80
2022-08-09T05:52:44.514Z,17.90
2022-08-09T05:55:21.829Z,18.00
2022-08-09T05:57:56.442Z,18.00
2022-08-09T06:00:33.115Z,18.10
2022-08-09T06:03:03.470Z,18.20
2022-08-09T06:05:57.469Z,18.30
2022-08-09T06:08:24.359Z,18.30
2022-08-09T06:10:57.064Z,18.40
2022-08-09T06:13:28.255Z,18.40
2022-08-09T06:15:55.929Z,18.50
2022-08-09T06:18:25.406Z,18.60
2022-08-09T06:20:57.889Z,18.60
2022-08-09T06:23:57.715Z,18.60
2022-08-09T06:26:22.159Z,18.70
2022-08-09T06:28:59.443Z,18.70
2022-08-09T06:31:31.551Z,18.70
2022-08-09T06:34:06.663Z,18.80
2022-08-09T06:36:34.508Z,19.10
2022-08-09T06:39:02.662Z,19.50
2022-08-09T06:41:55.861Z,18.90
2022-08-09T06:44:24.175Z,19.00
2022-08-09T06:46:55.490Z,19.00
2022-08-09T06:49:44.918Z,19.10
2022-08-09T06:52:12.076Z,19.10
2022-08-09T06:54:42.588Z,19.20
2022-08-09T06:57:11.971Z,19.90
2022-08-09T07:00:50.762Z,20.70
2022-08-09T07:02:29.506Z,19.30
2022-08-09T07:04:59.848Z,20.10
2022-08-09T07:07:58.410Z,19.40
2022-08-09T07:10:22.554Z,19.50
2022-08-09T07:12:57.915Z,19.50
2022-08-09T07:16:35.324Z,20.30
2022-08-09T07:18:14.990Z,19.60
2022-08-09T07:20:43.756Z,19.70
2022-08-09T07:23:18.557Z,19.80
2022-08-09T07:25:52.276Z,19.80
2022-08-09T07:28:28.318Z,19.90
2022-08-09T07:30:55.811Z,19.90
2022-08-09T07:33:23.209Z,20.00
2022-08-09T07:35:53.331Z,20.00
2022-08-09T07:38:23.438Z,20.10
2022-08-09T07:41:09.806Z,20.20
2022-08-09T07:43:49.540Z,20.40
2022-08-09T07:46:23.172Z,20.50
2022-08-09T07:48:59.616Z,20.60
2022-08-09T07:52:05.973Z,20.70
2022-08-09T07:54:19.247Z,20.80
2022-08-09T07:56:55.366Z,20.90
2022-08-09T07:59:33.661Z,21.00
2022-08-09T08:02:09.547Z,21.10
2022-08-09T08:04:37.313Z,21.10
2022-08-09T08:07:14.716Z,21.20
2022-08-09T08:10:05.604Z,21.30
2022-08-09T08:12:45.229Z,21.30
2022-08-09T08:15:18.296Z,21.40
2022-08-09T08:17:53.600Z,21.50
2022-08-09T08:20:30.329Z,21.60
2022-08-09T08:23:16.683Z,21.60
2022-08-09T08:25:48.372Z,21.70
2022-08-09T08:28:25.662Z,21.80
2022-08-09T08:31:08.853Z,21.80
2022-08-09T08:33:53.772Z,21.80
2022-08-09T08:36:28.871Z,22.00
2022-08-09T08:38:56.464Z,21.90
2022-08-09T08:41:24.533Z,22.10
2022-08-09T08:44:10.019Z,22.00
2022-08-09T08:47:02.689Z,22.10
2022-08-09T08:49:38.920Z,22.20
2022-08-09T08:52:41.479Z,22.40
2022-08-09T08:55:05.838Z,22.40
2022-08-09T08:57:34.658Z,22.60
2022-08-09T09:00:08.197Z,22.70
2022-08-09T09:02:52.638Z,22.80
2022-08-09T09:05:33.182Z,23.00
2022-08-09T09:08:30.277Z,23.10
2022-08-09T09:11:03.997Z,23.30
2022-08-09T09:13:50.188Z,23.80
2022-08-09T09:16:30.476Z,23.50
2022-08-09T09:22:15.780Z,23.70
2022-08-09T09:24:50.361Z,23.90
2022-08-09T09:28:04.364Z,24.00
2022-08-09T09:30:40.128Z,24.10
2022-08-09T09:33:15.626Z,24.20
2022-08-09T09:36:20.056Z,24.30
2022-08-09T09:38:56.681Z,24.40
2022-08-09T09:41:24.171Z,24.40
2022-08-09T09:44:12.793Z,24.40
2022-08-09T09:46:52.192Z,24.40
2022-08-09T09:49:49.699Z,24.50
2022-08-09T09:52:16.746Z,24.50
2022-08-09T09:55:16.745Z,22.80
2022-08-09T09:58:17.073Z,24.70
2022-08-09T10:00:58.569Z,24.80
2022-08-09T10:03:44.289Z,24.90
2022-08-09T10:06:13.066Z,25.00
2022-08-09T10:08:54.532Z,25.20
2022-08-09T10:12:01.376Z,25.30
2022-08-09T10:14:30.645Z,25.40
2022-08-09T10:17:24.062Z,25.70
2022-08-09T10:19:59.186Z,25.90
2022-08-09T10:22:45.535Z,26.20
2022-08-09T10:25:14.285Z,26.30
2022-08-09T10:27:56.730Z,26.50
2022-08-09T10:34:04.229Z,26.90
2022-08-09T10:36:05.375Z,27.20
2022-08-09T10:38:57.176Z,27.40
2022-08-09T10:41:27.791Z,27.40
2022-08-09T10:44:01.319Z,27.20
2022-08-09T10:47:00.822Z,27.10
2022-08-09T10:50:01.472Z,26.90
2022-08-09T10:53:00.847Z,26.60
2022-08-09T10:55:35.740Z,26.40
2022-08-09T10:58:37.670Z,26.30
2022-08-09T11:03:02.044Z,26.40
2022-08-09T11:04:28.264Z,26.60
2022-08-09T11:07:03.419Z,26.80
2022-08-09T11:09:48.038Z,27.00
2022-08-09T11:12:29.738Z,27.30
2022-08-09T11:15:02.908Z,27.50
2022-08-09T11:17:34.239Z,27.70
2022-08-09T11:20:22.448Z,28.10
2022-08-09T11:22:56.655Z,28.40
2022-08-09T11:25:44.611Z,28.80
2022-08-09T11:28:34.318Z,28.90
2022-08-09T11:31:36.474Z,29.30
2022-08-09T11:34:13.551Z,29.70
2022-08-09T11:36:44.346Z,30.00
2022-08-09T11:39:11.559Z,29.90
2022-08-09T11:41:40.667Z,29.70
2022-08-09T11:44:08.778Z,29.40
2022-08-09T11:46:57.262Z,29.20
2022-08-09T11:50:55.162Z,29.20
2022-08-09T11:53:58.950Z,29.40
2022-08-09T11:55:53.782Z,29.90
2022-08-09T11:58:33.209Z,30.80
2022-08-09T12:01:37.490Z,30.80
2022-08-09T12:04:05.402Z,31.20
2022-08-09T12:06:35.328Z,31.60
2022-08-09T12:09:19.771Z,32.00
2022-08-09T12:12:04.060Z,32.40
2022-08-09T12:14:40.776Z,32.80
2022-08-09T12:17:27.624Z,33.20
2022-08-09T12:20:03.816Z,33.60
2022-08-09T12:22:31.556Z,33.80
2022-08-09T12:25:17.822Z,34.00
2022-08-09T12:29:00.061Z,34.10
2022-08-09T12:31:11.334Z,34.20
2022-08-09T12:34:00.812Z,34.40
2022-08-09T12:36:33.479Z,34.60
2022-08-09T12:39:02.265Z,34.60
2022-08-09T12:41:39.630Z,34.40
2022-08-09T12:44:09.973Z,34.10
2022-08-09T12:46:49.283Z,33.60
2022-08-09T12:49:17.677Z,33.00
2022-08-09T12:52:02.214Z,32.40
2022-08-09T12:55:00.578Z,31.90
2022-08-09T12:57:46.876Z,31.60
2022-08-09T13:00:34.426Z,31.20
2022-08-09T13:03:04.955Z,30.90
2022-08-09T13:05:52.613Z,30.50
2022-08-09T13:08:40.395Z,30.20
2022-08-09T13:11:23.315Z,29.80
2022-08-09T13:14:42.858Z,29.50
2022-08-09T13:16:59.147Z,29.30
2022-08-09T13:20:09.799Z,29.10
2022-08-09T13:22:37.985Z,28.90
2022-08-09T13:25:14.276Z,28.80
2022-08-09T13:27:48.885Z,28.60
2022-08-09T13:31:11.143Z,28.50
2022-08-09T13:33:24.020Z,28.40
2022-08-09T13:36:39.656Z,28.30
2022-08-09T13:38:55.595Z,28.20
2022-08-09T13:41:51.234Z,28.10
2022-08-09T13:44:16.819Z,28.00
2022-08-09T13:47:29.478Z,28.00
2022-08-09T13:49:56.065Z,28.10
2022-08-09T13:52:23.684Z,28.20
2022-08-09T13:54:58.965Z,28.30
2022-08-09T13:57:37.075Z,28.40
2022-08-09T14:00:15.556Z,28.40
2022-08-09T14:03:03.939Z,28.40
2022-08-09T14:05:56.503Z,28.40
2022-08-09T14:08:23.040Z,28.50
2022-08-09T14:10:52.937Z,28.50
2022-08-09T14:13:27.921Z,28.50
2022-08-09T14:16:19.115Z,28.50
2022-08-09T14:18:50.274Z,28.50
2022-08-09T14:21:24.035Z,28.40
2022-08-09T14:23:56.564Z,28.30
2022-08-09T14:26:31.982Z,28.20
2022-08-09T14:29:08.220Z,28.20
2022-08-09T14:31:53.634Z,28.10
2022-08-09T14:34:31.373Z,28.10
2022-08-09T14:37:07.478Z,28.00
2022-08-09T14:39:45.373Z,28.00
2022-08-09T14:42:30.204Z,27.90
2022-08-09T14:46:39.340Z,27.90
2022-08-09T14:48:00.186Z,27.90
2022-08-09T14:50:34.213Z,27.90
2022-08-09T14:53:11.503Z,28.10
2022-08-09T14:55:47.950Z,27.20
2022-08-09T14:58:18.289Z,28.90
2022-08-09T15:00:48.545Z,29.20
2022-08-09T15:03:20.544Z,29.50
2022-08-09T15:05:52.630Z,29.50
2022-08-09T15:08:24.522Z,29.70
2022-08-09T15:11:01.372Z,30.20
2022-08-09T15:13:48.634Z,30.90
2022-08-09T15:16:19.587Z,31.20
2022-08-09T15:18:48.437Z,31.30
2022-08-09T15:21:58.348Z,31.80
2022-08-09T15:24:13.960Z,32.20
2022-08-09T15:26:46.749Z,32.90
2022-08-09T15:30:57.010Z,33.40
2022-08-09T15:32:01.442Z,33.30
2022-08-09T15:34:33.930Z,33.00
2022-08-09T15:37:23.939Z,32.50
2022-08-09T15:39:54.921Z,31.80
2022-08-09T15:42:22.349Z,31.10
2022-08-09T15:44:50.465Z,30.50
2022-08-09T15:47:23.528Z,30.00
2022-08-09T15:50:04.655Z,29.60
2022-08-09T15:52:39.387Z,29.40
2022-08-09T15:55:22.165Z,29.20
2022-08-09T15:57:51.467Z,29.70
2022-08-09T16:00:25.346Z,30.10
2022-08-09T16:02:56.554Z,30.40
2022-08-09T16:05:47.214Z,30.80
2022-08-09T16:08:29.795Z,31.30
2022-08-09T16:10:57.320Z,31.90
2022-08-09T16:14:02.896Z,32.40
2022-08-09T16:16:17.374Z,32.90
2022-08-09T16:18:45.799Z,33.40
2022-08-09T16:21:17.186Z,33.60
2022-08-09T16:23:55.468Z,33.80
2022-08-09T16:26:34.745Z,33.50
2022-08-09T16:29:11.419Z,33.00
2022-08-09T16:32:18.160Z,32.20
2022-08-09T16:34:54.846Z,31.50
2022-08-09T16:37:56.021Z,30.80
2022-08-09T16:40:10.515Z,30.10
2022-08-09T16:42:39.167Z,29.50
2022-08-09T16:45:18.676Z,29.00
2022-08-09T16:48:40.922Z,28.60
2022-08-09T16:50:38.641Z,28.20
2022-08-09T16:53:06.333Z,27.90
2022-08-09T16:55:58.513Z,27.60
2022-08-09T16:58:21.185Z,27.40
2022-08-09T17:00:49.030Z,27.20
2022-08-09T17:03:21.338Z,27.00
2022-08-09T17:06:08.356Z,24.70
2022-08-09T17:09:02.907Z,26.70
2022-08-09T17:11:40.871Z,26.60
2022-08-09T17:14:25.821Z,26.50
2022-08-09T17:17:02.294Z,26.40
2022-08-09T17:20:05.147Z,26.20
2022-08-09T17:22:24.640Z,26.10
2022-08-09T17:25:03.413Z,26.00
2022-08-09T17:27:34.943Z,25.90
2022-08-09T17:30:12.983Z,25.80
2022-08-09T17:32:46.484Z,25.70
2022-08-09T17:35:14.549Z,25.70
2022-08-09T17:38:11.838Z,25.60
2022-08-09T17:40:34.547Z,25.60
2022-08-09T17:43:33.006Z,25.50
2022-08-09T17:46:03.040Z,25.40
2022-08-09T17:48:31.569Z,25.40
2022-08-09T17:50:59.377Z,25.30
2022-08-09T17:53:43.207Z,25.20
2022-08-09T17:56:18.324Z,25.10
2022-08-09T17:58:45.457Z,25.10
2022-08-09T18:01:15.557Z,25.00
2022-08-09T18:03:51.448Z,25.00
2022-08-09T18:06:31.219Z,24.90
2022-08-09T18:09:05.424Z,24.90
2022-08-09T18:11:46.940Z,24.80
2022-08-09T18:14:23.524Z,24.80
2022-08-09T18:16:55.765Z,24.80
2022-08-09T18:20:59.838Z,24.70
2022-08-09T18:22:16.887Z,24.70
2022-08-09T18:24:46.378Z,24.60
2022-08-09T18:27:42.136Z,24.60
2022-08-09T18:30:35.986Z,24.50
2022-08-09T18:32:54.239Z,24.50
2022-08-09T18:35:56.247Z,24.40
2022-08-09T18:38:11.784Z,24.30
2022-08-09T18:40:40.544Z,24.30
2022-08-09T18:43:08.697Z,24.30
2022-08-09T18:46:46.643Z,24.20
2022-08-09T18:48:22.888Z,24.20
2022-08-09T18:50:58.368Z,24.20
2022-08-09T18:53:28.037Z,24.10
2022-08-09T18:56:15.586Z,24.10
2022-08-09T18:58:42.974Z,24.10
2022-08-09T19:01:12.159Z,24.00
2022-08-09T19:04:01.689Z,24.00
2022-08-09T19:06:27.943Z,24.00
2022-08-09T19:09:03.172Z,23.90
2022-08-09T19:11:37.674Z,23.90
2022-08-09T19:14:07.007Z,23.90
2022-08-09T19:16:36.640Z,23.90
2022-08-09T19:19:26.197Z,23.80
2022-08-09T19:22:04.932Z,23.80
2022-08-09T19:25:04.184Z,23.80
2022-08-09T19:27:22.469Z,23.70
2022-08-09T19:30:22.146Z,23.70
2022-08-09T19:32:37.369Z,23.60
2022-08-09T19:35:05.708Z,23.60
2022-08-09T19:37:54.438Z,23.60
2022-08-09T19:40:21.150Z,23.50
2022-08-09T19:42:49.585Z,23.50
2022-08-09T19:45:17.836Z,23.50
2022-08-09T19:47:45.786Z,23.60
2022-08-09T19:50:48.967Z,23.50
2022-08-09T19:53:02.423Z,23.50
2022-08-09T19:56:02.973Z,23.50
2022-08-09T19:58:30.082Z,23.40
2022-08-09T20:00:58.297Z,23.40
2022-08-09T20:04:23.696Z,23.40
2022-08-09T20:06:23.440Z,23.30
2022-08-09T20:08:56.625Z,23.20
2022-08-09T20:11:43.409Z,23.10
2022-08-09T20:14:16.404Z,23.10
2022-08-09T20:16:53.920Z,23.00
2022-08-09T20:19:46.371Z,22.90
2022-08-09T20:22:10.189Z,22.90
2022-08-09T20:24:41.943Z,20.60
2022-08-09T20:27:09.102Z,22.80
2022-08-09T20:29:39.701Z,22.70
2022-08-09T20:32:29.907Z,22.60
2022-08-09T20:34:56.994Z,22.60
2022-08-09T20:37:24.851Z,22.60
2022-08-09T20:40:14.737Z,22.50
2022-08-09T20:42:38.904Z,22.50
2022-08-09T20:45:56.867Z,22.40
2022-08-09T20:47:58.195Z,22.30
2022-08-09T20:50:47.036Z,22.20
2022-08-09T20:53:35.756Z,22.20
2022-08-09T20:56:02.003Z,22.10
2022-08-09T20:58:32.908Z,22.00
2022-08-09T21:01:33.718Z,22.00
2022-08-09T21:05:49.070Z,21.90
2022-08-09T21:06:41.659Z,21.80
2022-08-09T21:09:13.608Z,21.70
2022-08-09T21:14:30.901Z,21.50
2022-08-09T21:17:00.352Z,21.50
2022-08-09T21:20:18.551Z,21.50
2022-08-09T21:22:37.740Z,21.50
2022-08-09T21:25:21.132Z,21.50
2022-08-09T21:28:00.437Z,21.40
2022-08-09T21:30:27.457Z,21.30
2022-08-09T21:32:54.452Z,21.20
2022-08-09T21:35:21.945Z,21.20
2022-08-09T21:37:59.057Z,21.10
2022-08-09T21:40:30.247Z,21.10
2022-08-09T21:43:04.134Z,21.00
2022-08-09T21:45:38.858Z,21.10
2022-08-09T21:48:07.722Z,20.90
2022-08-09T21:50:38.602Z,20.80
2022-08-09T21:53:15.750Z,20.70
2022-08-09T21:55:54.943Z,20.70
2022-08-09T21:58:29.214Z,20.60
2022-08-09T22:00:58.290Z,20.50
2022-08-09T22:03:26.098Z,20.50
2022-08-09T22:05:54.381Z,20.40
2022-08-09T22:08:25.509Z,20.40
2022-08-09T22:11:00.526Z,20.30
2022-08-09T22:13:43.330Z,20.20
2022-08-09T22:16:11.815Z,20.10
2022-08-09T22:18:53.544Z,20.10
2022-08-09T22:21:50.178Z,20.00
2022-08-09T22:24:16.904Z,20.00
2022-08-09T22:26:51.471Z,19.90
2022-08-09T22:29:24.110Z,19.90
2022-08-09T22:31:56.877Z,19.80
2022-08-09T22:34:26.850Z,19.80
2022-08-09T22:36:56.262Z,19.70
2022-08-09T22:39:56.329Z,19.60
2022-08-09T22:42:16.359Z,20.00
2022-08-09T22:45:00.233Z,19.50
2022-08-09T22:48:10.181Z,19.40
2022-08-09T22:50:25.397Z,19.30
2022-08-09T22:52:54.869Z,19.20
2022-08-09T22:55:39.329Z,19.20
2022-08-09T22:58:30.600Z,19.20
2022-08-09T23:01:05.551Z,19.20
2022-08-09T23:04:03.972Z,19.10
2022-08-09T23:06:32.811Z,19.20
2022-08-09T23:09:02.247Z,19.00
2022-08-09T23:11:29.173Z,18.90
2022-08-09T23:13:56.127Z,19.80
2022-08-09T23:16:23.598Z,20.30
2022-08-09T23:18:50.577Z,19.10
2022-08-09T23:21:25.995Z,18.90
2022-08-09T23:24:05.165Z,18.80
2022-08-09T23:26:33.003Z,18.80
2022-08-09T23:28:59.974Z,18.80
2022-08-09T23:31:26.959Z,18.70
2022-08-09T23:33:53.923Z,18.60
2022-08-09T23:36:20.839Z,18.60
2022-08-09T23:38:48.765Z,18.60
2022-08-09T23:41:28.739Z,18.60
2022-08-09T23:44:01.661Z,18.40
2022-08-09T23:46:30.435Z,18.50
2022-08-09T23:48:59.101Z,18.40
2022-08-09T23:51:27.415Z,19.20
2022-08-09T23:54:01.881Z,18.40
2022-08-09T23:56:53.692Z,18.40
2022-08-09T23:59:18.431Z,18.30
